sensor_id;sensor_type;location;lat;lon;timestamp;pressure;altitude;pressure_sealevel;temperature;humidity
61506;BME280;47366;51.916;4.574;2022-07-04T05:12:53;102121.16;;;15.73;75.94
61506;BME280;47366;51.916;4.574;2022-07-04T05:15:18;102119.50;;;15.70;74.84
61506;BME280;47366;51.916;4.574;2022-07-04T05:17:43;102113.94;;;15.71;75.24
61506;BME280;47366;51.916;4.574;2022-07-04T05:20:09;102124.38;;;15.79;74.56
61506;BME280;47366;51.916;4.574;2022-07-04T05:22:34;102127.69;;;15.84;75.76
61506;BME280;47366;51.916;4.574;2022-07-04T05:25:00;102122.25;;;15.84;75.92
61506;BME280;47366;51.916;4.574;2022-07-04T05:27:25;102122.94;;;15.88;74.62
61506;BME280;47366;51.916;4.574;2022-07-04T05:29:51;102125.47;;;15.91;75.42
61506;BME280;47366;51.916;4.574;2022-07-04T05:32:16;102124.09;;;15.98;75.65
61506;BME280;47366;51.916;4.574;2022-07-04T05:34:42;102111.22;;;16.00;74.85
61506;BME280;47366;51.916;4.574;2022-07-04T05:37:07;102110.22;;;16.01;74.35
61506;BME280;47366;51.916;4.574;2022-07-04T05:39:33;102111.41;;;16.11;74.33
61506;BME280;47366;51.916;4.574;2022-07-04T05:41:58;102128.66;;;16.26;74.65
61506;BME280;47366;51.916;4.574;2022-07-04T05:44:23;102124.84;;;16.29;75.26
61506;BME280;47366;51.916;4.574;2022-07-04T05:46:49;102121.81;;;16.33;74.58
61506;BME280;47366;51.916;4.574;2022-07-04T05:49:14;102119.09;;;16.33;73.88
61506;BME280;47366;51.916;4.574;2022-07-04T05:51:39;102124.13;;;16.40;74.27
61506;BME280;47366;51.916;4.574;2022-07-04T05:54:05;102107.72;;;16.40;73.56
61506;BME280;47366;51.916;4.574;2022-07-04T05:56:30;102121.84;;;16.61;74.12
61506;BME280;47366;51.916;4.574;2022-07-04T05:58:56;102117.72;;;16.68;73.95
61506;BME280;47366;51.916;4.574;2022-07-04T06:01:21;102128.88;;;16.65;75.66
61506;BME280;47366;51.916;4.574;2022-07-04T06:03:46;102111.91;;;16.60;74.24
61506;BME280;47366;51.916;4.574;2022-07-04T06:06:12;102115.34;;;16.76;74.70
61506;BME280;47366;51.916;4.574;2022-07-04T06:08:37;102115.75;;;16.84;73.10
61506;BME280;47366;51.916;4.574;2022-07-04T06:11:02;102109.09;;;16.88;73.42
61506;BME280;47366;51.916;4.574;2022-07-04T06:13:28;102096.59;;;16.97;73.55
61506;BME280;47366;51.916;4.574;2022-07-04T06:15:54;102095.00;;;17.07;73.27
61506;BME280;47366;51.916;4.574;2022-07-04T06:18:19;102107.75;;;17.21;73.36
61506;BME280;47366;51.916;4.574;2022-07-04T06:20:44;102093.63;;;17.27;72.59
61506;BME280;47366;51.916;4.574;2022-07-04T06:23:09;102089.91;;;17.41;72.16
61506;BME280;47366;51.916;4.574;2022-07-04T06:25:35;102095.63;;;17.51;73.03
61506;BME280;47366;51.916;4.574;2022-07-04T06:28:00;102085.31;;;17.54;72.51
61506;BME280;47366;51.916;4.574;2022-07-04T06:30:26;102098.47;;;17.62;73.25
61506;BME280;47366;51.916;4.574;2022-07-04T06:32:54;102100.31;;;17.74;72.90
61506;BME280;47366;51.916;4.574;2022-07-04T06:35:22;102098.94;;;17.81;73.11
61506;BME280;47366;51.916;4.574;2022-07-04T06:38:07;102103.41;;;17.95;71.91
61506;BME280;47366;51.916;4.574;2022-07-04T06:40:34;102102.41;;;18.09;71.54
61506;BME280;47366;51.916;4.574;2022-07-04T06:42:59;102087.25;;;18.16;71.04
61506;BME280;47366;51.916;4.574;2022-07-04T06:45:25;102096.03;;;18.21;71.32
61506;BME280;47366;51.916;4.574;2022-07-04T06:47:50;102093.56;;;18.30;71.44
61506;BME280;47366;51.916;4.574;2022-07-04T06:50:16;102101.78;;;18.42;70.36
61506;BME280;47366;51.916;4.574;2022-07-04T06:52:43;102103.53;;;18.43;70.72
61506;BME280;47366;51.916;4.574;2022-07-04T06:55:09;102106.88;;;18.60;70.54
61506;BME280;47366;51.916;4.574;2022-07-04T06:57:35;102110.31;;;18.75;69.80
61506;BME280;47366;51.916;4.574;2022-07-04T07:00:00;102114.13;;;18.85;69.67
61506;BME280;47366;51.916;4.574;2022-07-04T07:02:26;102104.94;;;18.97;69.00
61506;BME280;47366;51.916;4.574;2022-07-04T07:04:54;102107.03;;;19.18;69.53
61506;BME280;47366;51.916;4.574;2022-07-04T07:07:20;102117.06;;;19.30;68.07
61506;BME280;47366;51.916;4.574;2022-07-04T07:09:45;102110.75;;;19.41;68.50
61506;BME280;47366;51.916;4.574;2022-07-04T07:12:10;102113.00;;;19.47;67.42
61506;BME280;47366;51.916;4.574;2022-07-04T07:14:36;102108.66;;;19.56;67.63
61506;BME280;47366;51.916;4.574;2022-07-04T07:17:01;102113.03;;;19.58;66.97
61506;BME280;47366;51.916;4.574;2022-07-04T07:19:28;102114.97;;;19.69;68.10
61506;BME280;47366;51.916;4.574;2022-07-04T07:21:53;102112.34;;;19.79;67.27
61506;BME280;47366;51.916;4.574;2022-07-04T07:24:18;102107.34;;;19.95;67.00
61506;BME280;47366;51.916;4.574;2022-07-04T07:26:44;102111.47;;;20.01;66.37
61506;BME280;47366;51.916;4.574;2022-07-04T07:29:09;102111.72;;;20.09;66.00
61506;BME280;47366;51.916;4.574;2022-07-04T07:31:34;102114.09;;;20.25;66.37
61506;BME280;47366;51.916;4.574;2022-07-04T07:33:59;102116.19;;;20.21;65.72
61506;BME280;47366;51.916;4.574;2022-07-04T07:36:25;102123.84;;;20.18;66.07
61506;BME280;47366;51.916;4.574;2022-07-04T07:38:50;102112.94;;;20.39;65.83
61506;BME280;47366;51.916;4.574;2022-07-04T07:41:17;102109.66;;;20.45;64.26
61506;BME280;47366;51.916;4.574;2022-07-04T07:43:43;102129.56;;;20.48;65.09
61506;BME280;47366;51.916;4.574;2022-07-04T07:46:08;102124.34;;;20.34;65.47
61506;BME280;47366;51.916;4.574;2022-07-04T07:48:34;102121.59;;;20.11;65.42
61506;BME280;47366;51.916;4.574;2022-07-04T07:50:59;102128.72;;;19.91;66.10
61506;BME280;47366;51.916;4.574;2022-07-04T07:53:25;102133.59;;;19.77;66.71
61506;BME280;47366;51.916;4.574;2022-07-04T07:55:51;102131.31;;;19.70;66.91
61506;BME280;47366;51.916;4.574;2022-07-04T07:58:16;102137.44;;;19.85;65.66
61506;BME280;47366;51.916;4.574;2022-07-04T08:00:41;102135.00;;;20.05;64.48
61506;BME280;47366;51.916;4.574;2022-07-04T08:03:07;102133.47;;;20.23;64.90
61506;BME280;47366;51.916;4.574;2022-07-04T08:05:51;102124.56;;;20.42;64.23
61506;BME280;47366;51.916;4.574;2022-07-04T08:08:16;102129.31;;;20.63;63.99
61506;BME280;47366;51.916;4.574;2022-07-04T08:10:42;102146.91;;;20.83;62.23
61506;BME280;47366;51.916;4.574;2022-07-04T08:13:07;102126.66;;;20.84;61.93
61506;BME280;47366;51.916;4.574;2022-07-04T08:15:32;102139.47;;;20.94;62.78
61506;BME280;47366;51.916;4.574;2022-07-04T08:17:58;102128.31;;;21.07;62.76
61506;BME280;47366;51.916;4.574;2022-07-04T08:20:24;102142.31;;;21.36;61.64
61506;BME280;47366;51.916;4.574;2022-07-04T08:22:49;102149.97;;;21.65;61.18
61506;BME280;47366;51.916;4.574;2022-07-04T08:25:15;102157.50;;;21.84;60.76
61506;BME280;47366;51.916;4.574;2022-07-04T08:27:42;102143.97;;;21.81;59.49
61506;BME280;47366;51.916;4.574;2022-07-04T08:30:07;102155.41;;;21.55;59.73
61506;BME280;47366;51.916;4.574;2022-07-04T08:32:33;102154.06;;;21.71;59.34
61506;BME280;47366;51.916;4.574;2022-07-04T08:34:59;102156.97;;;22.00;57.71
61506;BME280;47366;51.916;4.574;2022-07-04T08:37:24;102155.81;;;22.23;57.52
61506;BME280;47366;51.916;4.574;2022-07-04T08:39:50;102142.63;;;22.06;58.56
61506;BME280;47366;51.916;4.574;2022-07-04T08:42:17;102163.13;;;21.82;58.19
61506;BME280;47366;51.916;4.574;2022-07-04T08:44:48;102155.25;;;21.57;58.95
61506;BME280;47366;51.916;4.574;2022-07-04T08:47:19;102164.47;;;21.46;60.02
61506;BME280;47366;51.916;4.574;2022-07-04T08:49:58;102168.94;;;21.26;59.42
61506;BME280;47366;51.916;4.574;2022-07-04T08:52:35;102159.13;;;21.01;59.79
61506;BME280;47366;51.916;4.574;2022-07-04T08:55:02;102158.91;;;20.93;60.21
61506;BME280;47366;51.916;4.574;2022-07-04T08:57:47;102162.94;;;20.77;60.12
61506;BME280;47366;51.916;4.574;2022-07-04T09:00:32;102164.25;;;20.62;60.51
61506;BME280;47366;51.916;4.574;2022-07-04T09:02:59;102163.50;;;20.60;59.61
61506;BME280;47366;51.916;4.574;2022-07-04T09:05:25;102165.84;;;20.53;60.37
61506;BME280;47366;51.916;4.574;2022-07-04T09:07:52;102159.47;;;20.42;60.27
61506;BME280;47366;51.916;4.574;2022-07-04T09:10:18;102165.84;;;20.42;59.80
61506;BME280;47366;51.916;4.574;2022-07-04T09:12:43;102168.25;;;20.35;60.12
61506;BME280;47366;51.916;4.574;2022-07-04T09:15:09;102172.75;;;20.36;60.03
61506;BME280;47366;51.916;4.574;2022-07-04T09:17:34;102172.09;;;20.33;60.63
61506;BME280;47366;51.916;4.574;2022-07-04T09:20:23;102164.38;;;20.27;58.36
61506;BME280;47366;51.916;4.574;2022-07-04T09:22:50;102171.13;;;20.23;59.00
61506;BME280;47366;51.916;4.574;2022-07-04T09:25:17;102179.88;;;20.17;58.35
61506;BME280;47366;51.916;4.574;2022-07-04T09:27:52;102169.75;;;20.17;57.66
61506;BME280;47366;51.916;4.574;2022-07-04T09:30:20;102168.72;;;20.18;59.50
61506;BME280;47366;51.916;4.574;2022-07-04T09:32:54;102179.88;;;20.17;59.27
61506;BME280;47366;51.916;4.574;2022-07-04T09:35:29;102175.63;;;20.12;58.70
61506;BME280;47366;51.916;4.574;2022-07-04T09:37:58;102174.13;;;20.08;59.34
61506;BME280;47366;51.916;4.574;2022-07-04T09:42:52;102181.88;;;20.03;58.85
61506;BME280;47366;51.916;4.574;2022-07-04T09:45:17;102179.97;;;20.04;59.18
61506;BME280;47366;51.916;4.574;2022-07-04T09:47:45;102161.84;;;20.01;58.74
61506;BME280;47366;51.916;4.574;2022-07-04T09:50:19;102164.38;;;20.38;58.01
61506;BME280;47366;51.916;4.574;2022-07-04T09:52:59;102176.22;;;20.84;57.20
61506;BME280;47366;51.916;4.574;2022-07-04T09:55:36;102168.78;;;21.28;54.54
61506;BME280;47366;51.916;4.574;2022-07-04T09:58:07;102163.88;;;21.63;55.09
61506;BME280;47366;51.916;4.574;2022-07-04T10:00:37;102161.03;;;21.96;53.22
61506;BME280;47366;51.916;4.574;2022-07-04T10:03:25;102168.66;;;22.34;53.05
61506;BME280;47366;51.916;4.574;2022-07-04T10:06:04;102172.53;;;22.62;51.29
61506;BME280;47366;51.916;4.574;2022-07-04T10:08:30;102152.19;;;22.73;52.26
61506;BME280;47366;51.916;4.574;2022-07-04T10:10:57;102155.00;;;22.93;50.37
61506;BME280;47366;51.916;4.574;2022-07-04T10:13:23;102168.78;;;22.73;51.62
61506;BME280;47366;51.916;4.574;2022-07-04T10:15:48;102156.53;;;22.56;52.34
61506;BME280;47366;51.916;4.574;2022-07-04T10:18:17;102156.94;;;22.52;50.28
61506;BME280;47366;51.916;4.574;2022-07-04T10:20:43;102177.81;;;22.35;52.51
61506;BME280;47366;51.916;4.574;2022-07-04T10:23:10;102170.41;;;22.35;52.11
61506;BME280;47366;51.916;4.574;2022-07-04T10:25:36;102161.06;;;22.67;52.74
61506;BME280;47366;51.916;4.574;2022-07-04T10:28:03;102158.03;;;22.80;51.62
61506;BME280;47366;51.916;4.574;2022-07-04T10:30:31;102161.59;;;23.11;50.19
61506;BME280;47366;51.916;4.574;2022-07-04T10:33:00;102159.84;;;23.49;49.26
61506;BME280;47366;51.916;4.574;2022-07-04T10:38:15;102159.25;;;23.45;50.80
61506;BME280;47366;51.916;4.574;2022-07-04T10:41:23;102168.72;;;23.72;49.99
61506;BME280;47366;51.916;4.574;2022-07-04T10:48:57;102172.81;;;24.25;49.01
61506;BME280;47366;51.916;4.574;2022-07-04T10:51:44;102159.69;;;24.27;46.87
61506;BME280;47366;51.916;4.574;2022-07-04T10:56:50;102152.06;;;24.38;48.17
61506;BME280;47366;51.916;4.574;2022-07-04T10:59:20;102170.59;;;24.28;48.46
61506;BME280;47366;51.916;4.574;2022-07-04T11:01:50;102160.34;;;24.01;46.81
61506;BME280;47366;51.916;4.574;2022-07-04T11:04:45;102173.47;;;23.99;46.90
61506;BME280;47366;51.916;4.574;2022-07-04T11:07:12;102160.28;;;24.21;48.88
61506;BME280;47366;51.916;4.574;2022-07-04T11:09:37;102163.41;;;24.35;47.64
61506;BME280;47366;51.916;4.574;2022-07-04T11:12:03;102149.81;;;24.52;46.03
61506;BME280;47366;51.916;4.574;2022-07-04T11:14:35;102156.41;;;24.69;47.34
61506;BME280;47366;51.916;4.574;2022-07-04T11:17:01;102149.56;;;24.73;46.96
61506;BME280;47366;51.916;4.574;2022-07-04T11:19:27;102152.41;;;24.81;46.56
61506;BME280;47366;51.916;4.574;2022-07-04T11:21:57;102156.06;;;24.54;46.83
61506;BME280;47366;51.916;4.574;2022-07-04T11:24:24;102156.25;;;24.43;44.70
61506;BME280;47366;51.916;4.574;2022-07-04T11:26:50;102143.28;;;24.53;46.14
61506;BME280;47366;51.916;4.574;2022-07-04T11:29:15;102153.03;;;24.75;45.31
61506;BME280;47366;51.916;4.574;2022-07-04T11:31:43;102141.56;;;24.88;44.56
61506;BME280;47366;51.916;4.574;2022-07-04T11:34:09;102143.16;;;24.90;44.66
61506;BME280;47366;51.916;4.574;2022-07-04T11:36:35;102134.28;;;25.05;44.93
61506;BME280;47366;51.916;4.574;2022-07-04T11:39:06;102143.66;;;25.21;43.39
61506;BME280;47366;51.916;4.574;2022-07-04T11:41:37;102130.75;;;25.30;43.49
61506;BME280;47366;51.916;4.574;2022-07-04T11:44:25;102139.47;;;25.35;44.53
61506;BME280;47366;51.916;4.574;2022-07-04T11:47:14;102127.41;;;25.45;44.25
61506;BME280;47366;51.916;4.574;2022-07-04T11:52:17;102125.13;;;25.66;44.17
61506;BME280;47366;51.916;4.574;2022-07-04T11:54:44;102120.56;;;25.57;42.31
61506;BME280;47366;51.916;4.574;2022-07-04T11:59:43;102123.53;;;25.81;43.38
61506;BME280;47366;51.916;4.574;2022-07-04T12:02:15;102114.09;;;25.74;41.67
61506;BME280;47366;51.916;4.574;2022-07-04T12:04:41;102116.47;;;25.69;43.26
61506;BME280;47366;51.916;4.574;2022-07-04T12:07:13;102118.88;;;25.64;42.81
61506;BME280;47366;51.916;4.574;2022-07-04T12:09:39;102126.16;;;25.39;42.96
61506;BME280;47366;51.916;4.574;2022-07-04T12:12:05;102103.81;;;25.23;43.89
61506;BME280;47366;51.916;4.574;2022-07-04T12:14:30;102115.25;;;25.46;43.46
61506;BME280;47366;51.916;4.574;2022-07-04T12:17:13;102106.53;;;25.58;43.39
61506;BME280;47366;51.916;4.574;2022-07-04T12:19:59;102105.06;;;25.72;42.63
61506;BME280;47366;51.916;4.574;2022-07-04T12:22:32;102107.72;;;25.82;42.45
61506;BME280;47366;51.916;4.574;2022-07-04T12:24:59;102117.19;;;25.71;43.07
61506;BME280;47366;51.916;4.574;2022-07-04T12:27:25;102110.25;;;25.67;42.73
61506;BME280;47366;51.916;4.574;2022-07-04T12:29:53;102106.41;;;25.68;42.39
61506;BME280;47366;51.916;4.574;2022-07-04T12:32:19;102110.63;;;25.72;42.90
61506;BME280;47366;51.916;4.574;2022-07-04T12:34:44;102111.03;;;25.85;42.62
61506;BME280;47366;51.916;4.574;2022-07-04T12:37:12;102088.22;;;25.74;41.57
61506;BME280;47366;51.916;4.574;2022-07-04T12:39:40;102102.00;;;25.83;41.69
61506;BME280;47366;51.916;4.574;2022-07-04T12:42:08;102094.97;;;25.89;42.73
61506;BME280;47366;51.916;4.574;2022-07-04T12:44:35;102094.78;;;25.91;42.10
61506;BME280;47366;51.916;4.574;2022-07-04T12:47:03;102086.28;;;25.92;41.95
61506;BME280;47366;51.916;4.574;2022-07-04T12:49:28;102092.59;;;26.02;42.61
61506;BME280;47366;51.916;4.574;2022-07-04T12:52:04;102094.75;;;26.17;41.67
61506;BME280;47366;51.916;4.574;2022-07-04T12:54:30;102098.84;;;26.04;42.26
61506;BME280;47366;51.916;4.574;2022-07-04T12:57:04;102099.34;;;26.00;41.54
61506;BME280;47366;51.916;4.574;2022-07-04T12:59:30;102082.69;;;26.00;42.65
61506;BME280;47366;51.916;4.574;2022-07-04T13:01:55;102083.56;;;26.00;41.96
61506;BME280;47366;51.916;4.574;2022-07-04T13:04:20;102084.25;;;26.02;41.06
61506;BME280;47366;51.916;4.574;2022-07-04T13:06:46;102081.97;;;25.98;41.84
61506;BME280;47366;51.916;4.574;2022-07-04T13:09:12;102076.63;;;25.78;42.15
61506;BME280;47366;51.916;4.574;2022-07-04T13:11:37;102088.44;;;25.80;41.75
61506;BME280;47366;51.916;4.574;2022-07-04T13:14:21;102078.03;;;25.74;41.91
61506;BME280;47366;51.916;4.574;2022-07-04T13:16:47;102081.69;;;25.83;41.83
61506;BME280;47366;51.916;4.574;2022-07-04T13:19:12;102079.03;;;25.73;42.30
61506;BME280;47366;51.916;4.574;2022-07-04T13:21:38;102093.50;;;25.85;42.35
61506;BME280;47366;51.916;4.574;2022-07-04T13:24:03;102091.31;;;25.89;41.71
61506;BME280;47366;51.916;4.574;2022-07-04T13:26:29;102094.16;;;25.79;42.11
61506;BME280;47366;51.916;4.574;2022-07-04T13:28:56;102094.00;;;25.80;41.16
61506;BME280;47366;51.916;4.574;2022-07-04T13:31:22;102078.31;;;25.71;42.04
61506;BME280;47366;51.916;4.574;2022-07-04T13:33:47;102090.84;;;25.75;41.53
61506;BME280;47366;51.916;4.574;2022-07-04T13:36:12;102097.94;;;25.70;41.24
61506;BME280;47366;51.916;4.574;2022-07-04T13:38:40;102092.16;;;25.63;40.89
61506;BME280;47366;51.916;4.574;2022-07-04T13:41:05;102090.91;;;25.57;42.12
61506;BME280;47366;51.916;4.574;2022-07-04T13:43:31;102094.16;;;25.53;41.85
61506;BME280;47366;51.916;4.574;2022-07-04T13:45:56;102092.44;;;25.52;42.31
61506;BME280;47366;51.916;4.574;2022-07-04T13:48:22;102089.66;;;25.52;40.71
61506;BME280;47366;51.916;4.574;2022-07-04T13:50:48;102097.22;;;25.41;42.27
61506;BME280;47366;51.916;4.574;2022-07-04T13:53:13;102095.16;;;25.26;39.04
61506;BME280;47366;51.916;4.574;2022-07-04T13:55:39;102095.50;;;25.23;40.97
61506;BME280;47366;51.916;4.574;2022-07-04T13:58:06;102105.69;;;25.04;42.56
61506;BME280;47366;51.916;4.574;2022-07-04T14:00:32;102105.22;;;25.09;42.60
61506;BME280;47366;51.916;4.574;2022-07-04T14:02:58;102096.03;;;25.08;42.89
61506;BME280;47366;51.916;4.574;2022-07-04T14:05:24;102094.75;;;25.02;42.83
61506;BME280;47366;51.916;4.574;2022-07-04T14:07:51;102091.97;;;25.02;42.56
61506;BME280;47366;51.916;4.574;2022-07-04T14:10:17;102103.31;;;25.09;42.57
61506;BME280;47366;51.916;4.574;2022-07-04T14:12:42;102086.63;;;25.01;41.97
61506;BME280;47366;51.916;4.574;2022-07-04T14:15:08;102086.75;;;24.99;42.96
61506;BME280;47366;51.916;4.574;2022-07-04T14:17:34;102078.59;;;24.80;42.68
61506;BME280;47366;51.916;4.574;2022-07-04T14:20:00;102075.84;;;24.80;43.41
61506;BME280;47366;51.916;4.574;2022-07-04T14:22:26;102084.53;;;24.85;43.35
61506;BME280;47366;51.916;4.574;2022-07-04T14:24:52;102075.13;;;24.78;42.88
61506;BME280;47366;51.916;4.574;2022-07-04T14:27:17;102079.06;;;24.75;42.33
61506;BME280;47366;51.916;4.574;2022-07-04T14:29:42;102080.41;;;24.71;43.42
61506;BME280;47366;51.916;4.574;2022-07-04T14:32:08;102073.63;;;24.66;43.21
61506;BME280;47366;51.916;4.574;2022-07-04T14:34:33;102084.56;;;24.67;42.93
61506;BME280;47366;51.916;4.574;2022-07-04T14:36:59;102079.63;;;24.61;43.36
61506;BME280;47366;51.916;4.574;2022-07-04T14:39:26;102076.59;;;24.54;43.39
61506;BME280;47366;51.916;4.574;2022-07-04T14:41:52;102075.88;;;24.52;43.56
61506;BME280;47366;51.916;4.574;2022-07-04T14:44:18;102082.31;;;24.53;43.54
61506;BME280;47366;51.916;4.574;2022-07-04T14:46:43;102076.59;;;24.54;43.81
61506;BME280;47366;51.916;4.574;2022-07-04T14:49:09;102070.34;;;24.52;43.27
61506;BME280;47366;51.916;4.574;2022-07-04T14:51:34;102085.13;;;24.43;43.78
61506;BME280;47366;51.916;4.574;2022-07-04T14:54:00;102081.69;;;24.31;44.07
61506;BME280;47366;51.916;4.574;2022-07-04T14:56:26;102070.91;;;24.28;43.65
61506;BME280;47366;51.916;4.574;2022-07-04T14:58:51;102077.56;;;24.35;43.92
61506;BME280;47366;51.916;4.574;2022-07-04T15:01:16;102063.47;;;24.29;44.02
61506;BME280;47366;51.916;4.574;2022-07-04T15:03:42;102075.25;;;24.31;43.94
61506;BME280;47366;51.916;4.574;2022-07-04T15:06:07;102082.88;;;24.29;43.93
61506;BME280;47366;51.916;4.574;2022-07-04T15:08:33;102077.22;;;24.21;43.97
61506;BME280;47366;51.916;4.574;2022-07-04T15:10:58;102067.63;;;24.15;43.11
61506;BME280;47366;51.916;4.574;2022-07-04T15:13:23;102070.53;;;24.13;44.55
61506;BME280;47366;51.916;4.574;2022-07-04T15:15:48;102081.06;;;24.10;44.55
61506;BME280;47366;51.916;4.574;2022-07-04T15:18:14;102057.22;;;23.99;43.47
61506;BME280;47366;51.916;4.574;2022-07-04T15:20:39;102070.19;;;23.99;43.95
61506;BME280;47366;51.916;4.574;2022-07-04T15:23:23;102074.69;;;24.00;44.47
61506;BME280;47366;51.916;4.574;2022-07-04T15:26:07;102063.66;;;23.90;44.10
61506;BME280;47366;51.916;4.574;2022-07-04T15:28:33;102065.84;;;23.96;43.98
61506;BME280;47366;51.916;4.574;2022-07-04T15:30:58;102069.47;;;23.97;44.30
61506;BME280;47366;51.916;4.574;2022-07-04T15:33:25;102077.78;;;23.97;44.28
61506;BME280;47366;51.916;4.574;2022-07-04T15:35:53;102068.19;;;23.91;43.50
61506;BME280;47366;51.916;4.574;2022-07-04T15:38:19;102071.97;;;23.90;44.30
61506;BME280;47366;51.916;4.574;2022-07-04T15:40:45;102070.69;;;23.84;44.26
61506;BME280;47366;51.916;4.574;2022-07-04T15:43:10;102069.38;;;23.88;44.72
61506;BME280;47366;51.916;4.574;2022-07-04T15:45:36;102064.00;;;23.77;44.77
61506;BME280;47366;51.916;4.574;2022-07-04T15:48:01;102062.97;;;23.78;44.85
61506;BME280;47366;51.916;4.574;2022-07-04T15:50:27;102074.78;;;23.80;45.07
61506;BME280;47366;51.916;4.574;2022-07-04T15:52:53;102067.06;;;23.84;44.83
61506;BME280;47366;51.916;4.574;2022-07-04T15:55:19;102058.44;;;23.87;44.88
61506;BME280;47366;51.916;4.574;2022-07-04T15:57:44;102062.38;;;23.84;44.84
61506;BME280;47366;51.916;4.574;2022-07-04T16:00:10;102060.22;;;23.68;45.44
61506;BME280;47366;51.916;4.574;2022-07-04T16:02:36;102068.22;;;23.62;45.62
61506;BME280;47366;51.916;4.574;2022-07-04T16:05:01;102061.84;;;23.61;45.70
61506;BME280;47366;51.916;4.574;2022-07-04T16:07:26;102060.56;;;23.56;45.54
61506;BME280;47366;51.916;4.574;2022-07-04T16:09:52;102051.56;;;23.44;45.74
61506;BME280;47366;51.916;4.574;2022-07-04T16:12:17;102052.28;;;23.46;45.88
61506;BME280;47366;51.916;4.574;2022-07-04T16:14:42;102053.16;;;23.46;46.09
61506;BME280;47366;51.916;4.574;2022-07-04T16:17:08;102047.66;;;23.37;45.73
61506;BME280;47366;51.916;4.574;2022-07-04T16:19:33;102057.25;;;23.32;45.85
61506;BME280;47366;51.916;4.574;2022-07-04T16:21:59;102047.38;;;23.20;45.95
61506;BME280;47366;51.916;4.574;2022-07-04T16:24:24;102039.09;;;23.10;45.82
61506;BME280;47366;51.916;4.574;2022-07-04T16:26:50;102054.53;;;23.13;46.18
61506;BME280;47366;51.916;4.574;2022-07-04T16:29:16;102040.53;;;22.95;46.95
61506;BME280;47366;51.916;4.574;2022-07-04T16:31:42;102039.66;;;22.95;45.58
61506;BME280;47366;51.916;4.574;2022-07-04T16:34:07;102037.31;;;22.90;46.21
61506;BME280;47366;51.916;4.574;2022-07-04T16:36:33;102035.59;;;22.89;45.61
61506;BME280;47366;51.916;4.574;2022-07-04T16:38:58;102035.59;;;22.79;46.00
61506;BME280;47366;51.916;4.574;2022-07-04T16:41:23;102043.88;;;22.79;45.45
61506;BME280;47366;51.916;4.574;2022-07-04T16:43:49;102047.38;;;22.81;45.44
61506;BME280;47366;51.916;4.574;2022-07-04T16:46:14;102049.25;;;22.71;45.98
61506;BME280;47366;51.916;4.574;2022-07-04T16:48:40;102049.84;;;22.65;45.63
61506;BME280;47366;51.916;4.574;2022-07-04T16:51:05;102034.44;;;22.62;45.96
61506;BME280;47366;51.916;4.574;2022-07-04T16:53:31;102051.88;;;22.63;46.06
61506;BME280;47366;51.916;4.574;2022-07-04T16:55:58;102053.34;;;22.57;45.88
61506;BME280;47366;51.916;4.574;2022-07-04T16:58:23;102055.38;;;22.55;46.16
61506;BME280;47366;51.916;4.574;2022-07-04T17:00:49;102050.25;;;22.51;45.79
61506;BME280;47366;51.916;4.574;2022-07-04T17:03:15;102056.53;;;22.53;45.88
61506;BME280;47366;51.916;4.574;2022-07-04T17:05:41;102054.94;;;22.50;45.80
61506;BME280;47366;51.916;4.574;2022-07-04T17:08:06;102052.28;;;22.48;46.09
61506;BME280;47366;51.916;4.574;2022-07-04T17:10:32;102051.56;;;22.46;46.69
61506;BME280;47366;51.916;4.574;2022-07-04T17:12:57;102053.16;;;22.39;46.34
61506;BME280;47366;51.916;4.574;2022-07-04T17:15:22;102057.34;;;22.34;46.79
61506;BME280;47366;51.916;4.574;2022-07-04T17:17:48;102052.53;;;22.26;46.49
61506;BME280;47366;51.916;4.574;2022-07-04T17:20:13;102048.03;;;22.25;46.64
61506;BME280;47366;51.916;4.574;2022-07-04T17:22:38;102038.59;;;22.27;46.70
61506;BME280;47366;51.916;4.574;2022-07-04T17:25:05;102051.66;;;22.25;46.42
61506;BME280;47366;51.916;4.574;2022-07-04T17:27:30;102043.66;;;22.22;47.08
61506;BME280;47366;51.916;4.574;2022-07-04T17:29:55;102035.50;;;22.21;46.18
61506;BME280;47366;51.916;4.574;2022-07-04T17:32:21;102053.06;;;22.20;45.47
61506;BME280;47366;51.916;4.574;2022-07-04T17:34:46;102034.88;;;22.08;46.16
61506;BME280;47366;51.916;4.574;2022-07-04T17:37:11;102047.53;;;22.10;45.95
61506;BME280;47366;51.916;4.574;2022-07-04T17:39:37;102038.19;;;22.01;46.17
61506;BME280;47366;51.916;4.574;2022-07-04T17:42:02;102040.63;;;21.95;46.79
61506;BME280;47366;51.916;4.574;2022-07-04T17:44:28;102051.22;;;21.90;46.33
61506;BME280;47366;51.916;4.574;2022-07-04T17:46:53;102055.56;;;21.92;46.25
61506;BME280;47366;51.916;4.574;2022-07-04T17:49:19;102044.06;;;21.77;46.46
61506;BME280;47366;51.916;4.574;2022-07-04T17:51:45;102057.97;;;21.76;46.05
61506;BME280;47366;51.916;4.574;2022-07-04T17:54:12;102063.50;;;21.76;46.88
61506;BME280;47366;51.916;4.574;2022-07-04T17:56:38;102051.53;;;21.66;46.86
61506;BME280;47366;51.916;4.574;2022-07-04T17:59:04;102064.06;;;21.70;46.51
61506;BME280;47366;51.916;4.574;2022-07-04T18:01:30;102063.19;;;21.69;46.19
61506;BME280;47366;51.916;4.574;2022-07-04T18:03:56;102057.34;;;21.62;46.26
61506;BME280;47366;51.916;4.574;2022-07-04T18:06:23;102066.47;;;21.63;46.84
61506;BME280;47366;51.916;4.574;2022-07-04T18:08:49;102064.00;;;21.60;46.79
61506;BME280;47366;51.916;4.574;2022-07-04T18:11:15;102067.00;;;21.57;46.43
61506;BME280;47366;51.916;4.574;2022-07-04T18:13:41;102060.31;;;21.50;46.63
61506;BME280;47366;51.916;4.574;2022-07-04T18:16:06;102067.38;;;21.42;46.46
61506;BME280;47366;51.916;4.574;2022-07-04T18:18:32;102067.75;;;21.38;46.84
61506;BME280;47366;51.916;4.574;2022-07-04T18:20:58;102068.19;;;21.33;47.02